sensor_id;sensor_type;location;lat;lon;timestamp;P1;durP1;ratioP1;P2;durP2;ratioP2
14100;SDS011;7127;49.372;8.166;2023-03-08T00:00:20;3.13;;;2.70;;
14100;SDS011;7127;49.372;8.166;2023-03-08T00:02:48;2.97;;;2.67;;
14100;SDS011;7127;49.372;8.166;2023-03-08T00:05:16;3.67;;;2.80;;
14100;SDS011;7127;49.372;8.166;2023-03-08T00:07:45;3.10;;;2.80;;
14100;SDS011;7127;49.372;8.166;2023-03-08T00:10:12;2.87;;;2.40;;
14100;SDS011;7127;49.372;8.166;2023-03-08T00:12:38;3.00;;;2.70;;
14100;SDS011;7127;49.372;8.166;2023-03-08T00:15:06;3.20;;;2.50;;
14100;SDS011;7127;49.372;8.166;2023-03-08T00:17:34;2.97;;;2.50;;
14100;SDS011;7127;49.372;8.166;2023-03-08T00:20:01;3.63;;;2.70;;
14100;SDS011;7127;49.372;8.166;2023-03-08T00:22:29;3.33;;;2.83;;
14100;SDS011;7127;49.372;8.166;2023-03-08T00:25:01;3.10;;;2.80;;
14100;SDS011;7127;49.372;8.166;2023-03-08T00:27:28;2.70;;;2.40;;
14100;SDS011;7127;49.372;8.166;2023-03-08T00:29:55;4.03;;;3.43;;
14100;SDS011;7127;49.372;8.166;2023-03-08T00:32:23;3.20;;;2.47;;
14100;SDS011;7127;49.372;8.166;2023-03-08T00:34:50;3.17;;;2.70;;
14100;SDS011;7127;49.372;8.166;2023-03-08T00:37:17;3.10;;;2.60;;
14100;SDS011;7127;49.372;8.166;2023-03-08T00:39:47;2.93;;;2.63;;
14100;SDS011;7127;49.372;8.166;2023-03-08T00:42:18;3.23;;;2.87;;
14100;SDS011;7127;49.372;8.166;2023-03-08T00:44:46;3.50;;;3.20;;
14100;SDS011;7127;49.372;8.166;2023-03-08T00:47:13;4.20;;;2.80;;
14100;SDS011;7127;49.372;8.166;2023-03-08T00:49:40;3.30;;;2.50;;
14100;SDS011;7127;49.372;8.166;2023-03-08T00:52:08;3.07;;;2.60;;
14100;SDS011;7127;49.372;8.166;2023-03-08T00:54:35;3.47;;;2.83;;
14100;SDS011;7127;49.372;8.166;2023-03-08T00:57:02;4.40;;;3.03;;
14100;SDS011;7127;49.372;8.166;2023-03-08T00:59:31;3.47;;;2.83;;
14100;SDS011;7127;49.372;8.166;2023-03-08T01:01:57;3.87;;;2.73;;
14100;SDS011;7127;49.372;8.166;2023-03-08T01:04:25;2.93;;;2.53;;
14100;SDS011;7127;49.372;8.166;2023-03-08T01:06:53;2.93;;;2.50;;
14100;SDS011;7127;49.372;8.166;2023-03-08T01:09:20;3.10;;;2.80;;
14100;SDS011;7127;49.372;8.166;2023-03-08T01:11:46;3.80;;;3.03;;
14100;SDS011;7127;49.372;8.166;2023-03-08T01:14:13;3.07;;;2.50;;
14100;SDS011;7127;49.372;8.166;2023-03-08T01:16:41;2.97;;;2.60;;
14100;SDS011;7127;49.372;8.166;2023-03-08T01:19:09;3.20;;;2.60;;
14100;SDS011;7127;49.372;8.166;2023-03-08T01:21:36;4.07;;;2.73;;
14100;SDS011;7127;49.372;8.166;2023-03-08T01:24:03;3.90;;;3.23;;
14100;SDS011;7127;49.372;8.166;2023-03-08T01:26:30;3.70;;;2.87;;
14100;SDS011;7127;49.372;8.166;2023-03-08T01:28:57;3.73;;;2.83;;
14100;SDS011;7127;49.372;8.166;2023-03-08T01:31:25;3.50;;;3.17;;
14100;SDS011;7127;49.372;8.166;2023-03-08T01:33:55;3.50;;;2.90;;
14100;SDS011;7127;49.372;8.166;2023-03-08T01:36:24;3.10;;;2.77;;
14100;SDS011;7127;49.372;8.166;2023-03-08T01:38:52;2.93;;;2.47;;
14100;SDS011;7127;49.372;8.166;2023-03-08T01:41:20;3.20;;;2.70;;
14100;SDS011;7127;49.372;8.166;2023-03-08T01:43:49;3.70;;;3.20;;
14100;SDS011;7127;49.372;8.166;2023-03-08T01:46:17;3.00;;;2.60;;
14100;SDS011;7127;49.372;8.166;2023-03-08T01:48:50;3.33;;;2.67;;
14100;SDS011;7127;49.372;8.166;2023-03-08T01:51:23;2.50;;;2.20;;
14100;SDS011;7127;49.372;8.166;2023-03-08T01:53:55;3.27;;;2.70;;
14100;SDS011;7127;49.372;8.166;2023-03-08T01:56:25;3.67;;;3.00;;
14100;SDS011;7127;49.372;8.166;2023-03-08T01:58:52;3.10;;;2.70;;
14100;SDS011;7127;49.372;8.166;2023-03-08T02:01:20;3.50;;;2.90;;
14100;SDS011;7127;49.372;8.166;2023-03-08T02:03:47;3.57;;;2.80;;
14100;SDS011;7127;49.372;8.166;2023-03-08T02:06:14;3.07;;;2.60;;
14100;SDS011;7127;49.372;8.166;2023-03-08T02:08:44;3.10;;;2.73;;
14100;SDS011;7127;49.372;8.166;2023-03-08T02:11:11;2.70;;;2.30;;
14100;SDS011;7127;49.372;8.166;2023-03-08T02:13:40;3.67;;;2.90;;
14100;SDS011;7127;49.372;8.166;2023-03-08T02:16:08;3.30;;;2.60;;
14100;SDS011;7127;49.372;8.166;2023-03-08T02:18:47;3.73;;;2.87;;
14100;SDS011;7127;49.372;8.166;2023-03-08T02:21:16;2.83;;;2.43;;
14100;SDS011;7127;49.372;8.166;2023-03-08T02:23:44;2.57;;;2.37;;
14100;SDS011;7127;49.372;8.166;2023-03-08T02:26:11;2.70;;;2.40;;
14100;SDS011;7127;49.372;8.166;2023-03-08T02:28:38;3.23;;;2.60;;
14100;SDS011;7127;49.372;8.166;2023-03-08T02:31:05;3.67;;;2.67;;
14100;SDS011;7127;49.372;8.166;2023-03-08T02:33:32;3.27;;;2.80;;
14100;SDS011;7127;49.372;8.166;2023-03-08T02:35:59;3.63;;;2.60;;
14100;SDS011;7127;49.372;8.166;2023-03-08T02:38:27;2.43;;;2.23;;
14100;SDS011;7127;49.372;8.166;2023-03-08T02:40:56;2.93;;;2.40;;
14100;SDS011;7127;49.372;8.166;2023-03-08T02:43:23;3.27;;;2.63;;
14100;SDS011;7127;49.372;8.166;2023-03-08T02:45:50;2.70;;;2.20;;
14100;SDS011;7127;49.372;8.166;2023-03-08T02:48:17;3.20;;;2.60;;
14100;SDS011;7127;49.372;8.166;2023-03-08T02:50:44;2.97;;;2.53;;
14100;SDS011;7127;49.372;8.166;2023-03-08T02:53:11;2.57;;;2.30;;
14100;SDS011;7127;49.372;8.166;2023-03-08T02:55:38;3.07;;;2.53;;
14100;SDS011;7127;49.372;8.166;2023-03-08T02:58:08;2.80;;;2.37;;
14100;SDS011;7127;49.372;8.166;2023-03-08T03:00:35;2.57;;;2.13;;
14100;SDS011;7127;49.372;8.166;2023-03-08T03:03:03;4.07;;;2.57;;
14100;SDS011;7127;49.372;8.166;2023-03-08T03:05:30;3.93;;;2.73;;
14100;SDS011;7127;49.372;8.166;2023-03-08T03:07:57;3.40;;;2.50;;
14100;SDS011;7127;49.372;8.166;2023-03-08T03:10:24;2.60;;;2.23;;
14100;SDS011;7127;49.372;8.166;2023-03-08T03:12:51;2.73;;;2.43;;
14100;SDS011;7127;49.372;8.166;2023-03-08T03:15:19;3.77;;;2.60;;
14100;SDS011;7127;49.372;8.166;2023-03-08T03:17:46;3.73;;;2.80;;
14100;SDS011;7127;49.372;8.166;2023-03-08T03:20:13;3.30;;;2.50;;
14100;SDS011;7127;49.372;8.166;2023-03-08T03:22:40;2.93;;;2.53;;
14100;SDS011;7127;49.372;8.166;2023-03-08T03:25:08;4.20;;;3.03;;
14100;SDS011;7127;49.372;8.166;2023-03-08T03:27:35;2.80;;;2.30;;
14100;SDS011;7127;49.372;8.166;2023-03-08T03:30:02;3.20;;;2.47;;
14100;SDS011;7127;49.372;8.166;2023-03-08T03:32:32;3.70;;;2.63;;
14100;SDS011;7127;49.372;8.166;2023-03-08T03:34:59;3.00;;;2.20;;
14100;SDS011;7127;49.372;8.166;2023-03-08T03:37:26;3.00;;;2.30;;
14100;SDS011;7127;49.372;8.166;2023-03-08T03:39:53;3.00;;;2.47;;
14100;SDS011;7127;49.372;8.166;2023-03-08T03:42:20;2.80;;;2.47;;
14100;SDS011;7127;49.372;8.166;2023-03-08T03:44:46;2.87;;;2.40;;
14100;SDS011;7127;49.372;8.166;2023-03-08T03:47:13;3.20;;;2.50;;
14100;SDS011;7127;49.372;8.166;2023-03-08T03:49:42;4.00;;;2.90;;
14100;SDS011;7127;49.372;8.166;2023-03-08T03:52:08;2.73;;;2.50;;
14100;SDS011;7127;49.372;8.166;2023-03-08T03:54:35;3.50;;;2.60;;
14100;SDS011;7127;49.372;8.166;2023-03-08T03:57:03;3.50;;;2.57;;
14100;SDS011;7127;49.372;8.166;2023-03-08T03:59:30;2.90;;;2.40;;
14100;SDS011;7127;49.372;8.166;2023-03-08T04:01:58;2.83;;;2.40;;
14100;SDS011;7127;49.372;8.166;2023-03-08T04:04:24;3.23;;;2.50;;
14100;SDS011;7127;49.372;8.166;2023-03-08T04:06:53;2.37;;;2.10;;
14100;SDS011;7127;49.372;8.166;2023-03-08T04:09:19;2.70;;;2.40;;
14100;SDS011;7127;49.372;8.166;2023-03-08T04:11:46;2.67;;;2.20;;
14100;SDS011;7127;49.372;8.166;2023-03-08T04:14:13;3.40;;;2.70;;
14100;SDS011;7127;49.372;8.166;2023-03-08T04:16:41;2.80;;;2.53;;
14100;SDS011;7127;49.372;8.166;2023-03-08T04:19:09;2.63;;;2.30;;
14100;SDS011;7127;49.372;8.166;2023-03-08T04:21:37;2.57;;;2.23;;
14100;SDS011;7127;49.372;8.166;2023-03-08T04:24:06;3.07;;;2.60;;
14100;SDS011;7127;49.372;8.166;2023-03-08T04:26:33;3.27;;;2.80;;
14100;SDS011;7127;49.372;8.166;2023-03-08T04:29:01;3.40;;;2.70;;
14100;SDS011;7127;49.372;8.166;2023-03-08T04:31:31;3.13;;;2.67;;
14100;SDS011;7127;49.372;8.166;2023-03-08T04:33:59;3.00;;;2.60;;
14100;SDS011;7127;49.372;8.166;2023-03-08T04:36:27;3.13;;;2.57;;
14100;SDS011;7127;49.372;8.166;2023-03-08T04:38:54;3.07;;;2.60;;
14100;SDS011;7127;49.372;8.166;2023-03-08T04:41:22;3.80;;;2.87;;
14100;SDS011;7127;49.372;8.166;2023-03-08T04:43:50;3.00;;;2.60;;
14100;SDS011;7127;49.372;8.166;2023-03-08T04:46:18;3.37;;;2.63;;
14100;SDS011;7127;49.372;8.166;2023-03-08T04:48:46;2.87;;;2.37;;
14100;SDS011;7127;49.372;8.166;2023-03-08T04:51:14;3.20;;;2.90;;
14100;SDS011;7127;49.372;8.166;2023-03-08T04:53:42;4.03;;;2.67;;
14100;SDS011;7127;49.372;8.166;2023-03-08T04:56:09;3.20;;;2.50;;
14100;SDS011;7127;49.372;8.166;2023-03-08T04:58:39;3.27;;;2.43;;
14100;SDS011;7127;49.372;8.166;2023-03-08T05:01:07;3.37;;;2.90;;
14100;SDS011;7127;49.372;8.166;2023-03-08T05:03:35;3.43;;;2.50;;
14100;SDS011;7127;49.372;8.166;2023-03-08T05:06:02;3.30;;;2.63;;
14100;SDS011;7127;49.372;8.166;2023-03-08T05:08:30;3.50;;;2.80;;
14100;SDS011;7127;49.372;8.166;2023-03-08T05:10:57;3.20;;;2.70;;
14100;SDS011;7127;49.372;8.166;2023-03-08T05:13:25;5.03;;;3.07;;
14100;SDS011;7127;49.372;8.166;2023-03-08T05:15:54;3.50;;;2.93;;
14100;SDS011;7127;49.372;8.166;2023-03-08T05:18:21;4.57;;;3.40;;
14100;SDS011;7127;49.372;8.166;2023-03-08T05:20:52;4.77;;;3.13;;
14100;SDS011;7127;49.372;8.166;2023-03-08T05:23:20;3.70;;;2.90;;
14100;SDS011;7127;49.372;8.166;2023-03-08T05:25:50;3.83;;;2.93;;
14100;SDS011;7127;49.372;8.166;2023-03-08T05:28:17;3.30;;;2.70;;
14100;SDS011;7127;49.372;8.166;2023-03-08T05:30:44;3.37;;;2.70;;
14100;SDS011;7127;49.372;8.166;2023-03-08T05:33:13;3.53;;;3.07;;
14100;SDS011;7127;49.372;8.166;2023-03-08T05:35:40;4.00;;;3.30;;
14100;SDS011;7127;49.372;8.166;2023-03-08T05:38:07;4.10;;;3.60;;
14100;SDS011;7127;49.372;8.166;2023-03-08T05:40:34;3.67;;;3.03;;
14100;SDS011;7127;49.372;8.166;2023-03-08T05:43:03;3.33;;;2.97;;
14100;SDS011;7127;49.372;8.166;2023-03-08T05:45:29;4.20;;;3.27;;
14100;SDS011;7127;49.372;8.166;2023-03-08T05:47:56;5.87;;;3.10;;
14100;SDS011;7127;49.372;8.166;2023-03-08T05:50:24;3.30;;;2.93;;
14100;SDS011;7127;49.372;8.166;2023-03-08T05:52:51;4.13;;;3.20;;
14100;SDS011;7127;49.372;8.166;2023-03-08T05:55:18;4.63;;;3.27;;
14100;SDS011;7127;49.372;8.166;2023-03-08T05:57:45;3.27;;;2.83;;
14100;SDS011;7127;49.372;8.166;2023-03-08T06:00:12;4.53;;;2.90;;
14100;SDS011;7127;49.372;8.166;2023-03-08T06:02:40;3.37;;;2.77;;
14100;SDS011;7127;49.372;8.166;2023-03-08T06:05:07;3.93;;;3.43;;
14100;SDS011;7127;49.372;8.166;2023-03-08T06:07:36;4.10;;;3.00;;
14100;SDS011;7127;49.372;8.166;2023-03-08T06:10:03;4.30;;;3.50;;
14100;SDS011;7127;49.372;8.166;2023-03-08T06:12:31;4.93;;;3.10;;
14100;SDS011;7127;49.372;8.166;2023-03-08T06:14:58;4.40;;;3.40;;
14100;SDS011;7127;49.372;8.166;2023-03-08T06:17:24;4.03;;;3.33;;
14100;SDS011;7127;49.372;8.166;2023-03-08T06:19:51;4.10;;;3.40;;
14100;SDS011;7127;49.372;8.166;2023-03-08T06:22:18;4.57;;;3.50;;
14100;SDS011;7127;49.372;8.166;2023-03-08T06:24:46;3.50;;;3.20;;
14100;SDS011;7127;49.372;8.166;2023-03-08T06:27:14;5.43;;;3.40;;
14100;SDS011;7127;49.372;8.166;2023-03-08T06:29:41;4.13;;;3.40;;
14100;SDS011;7127;49.372;8.166;2023-03-08T06:32:08;4.23;;;3.47;;
14100;SDS011;7127;49.372;8.166;2023-03-08T06:34:35;4.33;;;3.17;;
14100;SDS011;7127;49.372;8.166;2023-03-08T06:37:02;4.90;;;3.73;;
14100;SDS011;7127;49.372;8.166;2023-03-08T06:39:29;4.67;;;3.60;;
14100;SDS011;7127;49.372;8.166;2023-03-08T06:41:58;6.40;;;3.60;;
14100;SDS011;7127;49.372;8.166;2023-03-08T06:44:26;3.67;;;3.27;;
14100;SDS011;7127;49.372;8.166;2023-03-08T06:46:53;5.30;;;3.90;;
14100;SDS011;7127;49.372;8.166;2023-03-08T06:49:20;4.60;;;3.50;;
14100;SDS011;7127;49.372;8.166;2023-03-08T06:51:47;4.47;;;3.40;;
14100;SDS011;7127;49.372;8.166;2023-03-08T06:54:15;4.00;;;3.60;;
14100;SDS011;7127;49.372;8.166;2023-03-08T06:56:42;4.87;;;3.83;;
14100;SDS011;7127;49.372;8.166;2023-03-08T06:59:11;3.97;;;3.20;;
14100;SDS011;7127;49.372;8.166;2023-03-08T07:01:38;3.70;;;3.13;;
14100;SDS011;7127;49.372;8.166;2023-03-08T07:04:06;4.33;;;3.53;;
14100;SDS011;7127;49.372;8.166;2023-03-08T07:06:33;3.40;;;3.03;;
14100;SDS011;7127;49.372;8.166;2023-03-08T07:08:59;3.73;;;3.03;;
14100;SDS011;7127;49.372;8.166;2023-03-08T07:11:26;3.73;;;3.03;;
14100;SDS011;7127;49.372;8.166;2023-03-08T07:13:55;3.77;;;3.20;;
14100;SDS011;7127;49.372;8.166;2023-03-08T07:16:24;4.00;;;3.13;;
14100;SDS011;7127;49.372;8.166;2023-03-08T07:18:51;3.53;;;2.87;;
14100;SDS011;7127;49.372;8.166;2023-03-08T07:21:18;3.47;;;3.17;;
14100;SDS011;7127;49.372;8.166;2023-03-08T07:23:45;4.53;;;3.50;;
14100;SDS011;7127;49.372;8.166;2023-03-08T07:26:12;4.40;;;3.40;;
14100;SDS011;7127;49.372;8.166;2023-03-08T07:28:39;5.07;;;3.80;;
14100;SDS011;7127;49.372;8.166;2023-03-08T07:31:08;4.70;;;3.87;;
14100;SDS011;7127;49.372;8.166;2023-03-08T07:33:37;4.53;;;3.70;;
14100;SDS011;7127;49.372;8.166;2023-03-08T07:36:04;4.57;;;3.63;;
14100;SDS011;7127;49.372;8.166;2023-03-08T07:38:31;4.50;;;3.23;;
14100;SDS011;7127;49.372;8.166;2023-03-08T07:40:58;4.30;;;3.60;;
14100;SDS011;7127;49.372;8.166;2023-03-08T07:43:25;4.03;;;3.50;;
14100;SDS011;7127;49.372;8.166;2023-03-08T07:45:52;4.00;;;3.60;;
14100;SDS011;7127;49.372;8.166;2023-03-08T07:48:20;4.33;;;3.93;;
14100;SDS011;7127;49.372;8.166;2023-03-08T07:50:49;5.07;;;3.90;;
14100;SDS011;7127;49.372;8.166;2023-03-08T07:53:16;4.87;;;3.57;;
14100;SDS011;7127;49.372;8.166;2023-03-08T07:55:42;4.97;;;4.03;;
14100;SDS011;7127;49.372;8.166;2023-03-08T07:58:09;5.57;;;4.40;;
14100;SDS011;7127;49.372;8.166;2023-03-08T08:00:36;6.07;;;4.13;;
14100;SDS011;7127;49.372;8.166;2023-03-08T08:03:03;4.40;;;3.93;;
14100;SDS011;7127;49.372;8.166;2023-03-08T08:05:30;5.10;;;3.97;;
14100;SDS011;7127;49.372;8.166;2023-03-08T08:07:58;6.53;;;4.17;;
14100;SDS011;7127;49.372;8.166;2023-03-08T08:10:25;4.70;;;4.20;;
14100;SDS011;7127;49.372;8.166;2023-03-08T08:12:52;5.20;;;3.83;;
14100;SDS011;7127;49.372;8.166;2023-03-08T08:15:18;5.00;;;3.97;;
14100;SDS011;7127;49.372;8.166;2023-03-08T08:17:47;6.17;;;4.17;;
14100;SDS011;7127;49.372;8.166;2023-03-08T08:20:14;5.03;;;3.80;;
14100;SDS011;7127;49.372;8.166;2023-03-08T08:22:41;4.63;;;3.97;;
14100;SDS011;7127;49.372;8.166;2023-03-08T08:25:10;5.57;;;4.07;;
14100;SDS011;7127;49.372;8.166;2023-03-08T08:27:37;6.03;;;4.30;;
14100;SDS011;7127;49.372;8.166;2023-03-08T08:30:04;5.07;;;3.63;;
14100;SDS011;7127;49.372;8.166;2023-03-08T08:32:32;5.20;;;4.00;;
14100;SDS011;7127;49.372;8.166;2023-03-08T08:34:59;6.87;;;4.00;;
14100;SDS011;7127;49.372;8.166;2023-03-08T08:37:26;4.13;;;3.70;;
14100;SDS011;7127;49.372;8.166;2023-03-08T08:39:53;5.70;;;3.73;;
14100;SDS011;7127;49.372;8.166;2023-03-08T08:42:22;5.27;;;3.90;;
14100;SDS011;7127;49.372;8.166;2023-03-08T08:44:49;5.07;;;3.70;;
14100;SDS011;7127;49.372;8.166;2023-03-08T08:47:17;5.43;;;4.27;;
14100;SDS011;7127;49.372;8.166;2023-03-08T08:49:44;5.83;;;3.87;;
14100;SDS011;7127;49.372;8.166;2023-03-08T08:52:11;4.87;;;4.00;;
14100;SDS011;7127;49.372;8.166;2023-03-08T08:54:38;5.00;;;4.20;;
14100;SDS011;7127;49.372;8.166;2023-03-08T08:57:05;5.37;;;4.03;;
14100;SDS011;7127;49.372;8.166;2023-03-08T08:59:33;4.83;;;4.07;;
14100;SDS011;7127;49.372;8.166;2023-03-08T09:02:00;4.40;;;3.60;;
14100;SDS011;7127;49.372;8.166;2023-03-08T09:04:27;4.83;;;3.60;;
14100;SDS011;7127;49.372;8.166;2023-03-08T09:06:54;4.27;;;3.30;;
14100;SDS011;7127;49.372;8.166;2023-03-08T09:09:21;4.13;;;3.60;;
14100;SDS011;7127;49.372;8.166;2023-03-08T09:11:48;4.30;;;3.47;;
14100;SDS011;7127;49.372;8.166;2023-03-08T09:14:15;5.10;;;3.63;;
14100;SDS011;7127;49.372;8.166;2023-03-08T09:16:43;3.63;;;3.27;;
14100;SDS011;7127;49.372;8.166;2023-03-08T09:19:10;4.50;;;3.70;;
14100;SDS011;7127;49.372;8.166;2023-03-08T09:21:37;3.90;;;3.50;;
14100;SDS011;7127;49.372;8.166;2023-03-08T09:24:05;4.40;;;3.73;;
14100;SDS011;7127;49.372;8.166;2023-03-08T09:26:33;4.07;;;3.67;;
14100;SDS011;7127;49.372;8.166;2023-03-08T09:29:00;4.40;;;3.90;;
14100;SDS011;7127;49.372;8.166;2023-03-08T09:31:31;4.00;;;3.60;;
14100;SDS011;7127;49.372;8.166;2023-03-08T09:34:00;3.57;;;3.23;;
14100;SDS011;7127;49.372;8.166;2023-03-08T09:36:32;4.63;;;4.00;;
14100;SDS011;7127;49.372;8.166;2023-03-08T09:38:59;4.10;;;3.37;;
14100;SDS011;7127;49.372;8.166;2023-03-08T09:41:31;3.67;;;3.27;;
14100;SDS011;7127;49.372;8.166;2023-03-08T09:44:16;4.40;;;3.37;;
14100;SDS011;7127;49.372;8.166;2023-03-08T09:46:58;4.57;;;3.73;;
14100;SDS011;7127;49.372;8.166;2023-03-08T09:49:31;4.47;;;3.07;;
14100;SDS011;7127;49.372;8.166;2023-03-08T09:52:02;2.70;;;2.50;;
14100;SDS011;7127;49.372;8.166;2023-03-08T09:54:35;3.50;;;2.83;;
14100;SDS011;7127;49.372;8.166;2023-03-08T09:57:04;3.10;;;2.67;;
14100;SDS011;7127;49.372;8.166;2023-03-08T09:59:36;2.83;;;2.50;;
14100;SDS011;7127;49.372;8.166;2023-03-08T10:02:12;2.77;;;2.50;;
14100;SDS011;7127;49.372;8.166;2023-03-08T10:04:49;2.53;;;2.33;;
14100;SDS011;7127;49.372;8.166;2023-03-08T10:07:23;2.40;;;2.20;;
14100;SDS011;7127;49.372;8.166;2023-03-08T10:10:05;2.30;;;2.10;;
14100;SDS011;7127;49.372;8.166;2023-03-08T10:12:58;2.57;;;2.00;;
14100;SDS011;7127;49.372;8.166;2023-03-08T10:15:42;2.80;;;2.30;;
14100;SDS011;7127;49.372;8.166;2023-03-08T10:18:23;2.80;;;2.13;;
14100;SDS011;7127;49.372;8.166;2023-03-08T10:20:56;2.30;;;2.10;;
14100;SDS011;7127;49.372;8.166;2023-03-08T10:23:27;3.10;;;2.50;;
14100;SDS011;7127;49.372;8.166;2023-03-08T10:25:56;2.60;;;2.30;;
14100;SDS011;7127;49.372;8.166;2023-03-08T10:28:25;2.90;;;2.43;;
14100;SDS011;7127;49.372;8.166;2023-03-08T10:30:53;2.90;;;2.40;;
14100;SDS011;7127;49.372;8.166;2023-03-08T10:33:22;3.13;;;2.57;;
14100;SDS011;7127;49.372;8.166;2023-03-08T10:35:53;3.20;;;2.33;;
14100;SDS011;7127;49.372;8.166;2023-03-08T10:38:23;2.90;;;2.60;;
14100;SDS011;7127;49.372;8.166;2023-03-08T10:41:00;2.93;;;2.60;;
14100;SDS011;7127;49.372;8.166;2023-03-08T10:43:29;3.00;;;2.70;;
14100;SDS011;7127;49.372;8.166;2023-03-08T10:45:59;3.20;;;2.90;;
14100;SDS011;7127;49.372;8.166;2023-03-08T10:48:28;2.60;;;2.40;;
14100;SDS011;7127;49.372;8.166;2023-03-08T10:50:59;3.40;;;3.10;;
14100;SDS011;7127;49.372;8.166;2023-03-08T10:53:28;3.90;;;3.00;;
14100;SDS011;7127;49.372;8.166;2023-03-08T10:55:56;3.93;;;3.00;;
14100;SDS011;7127;49.372;8.166;2023-03-08T10:58:26;3.63;;;3.30;;
14100;SDS011;7127;49.372;8.166;2023-03-08T11:00:56;4.07;;;3.10;;
14100;SDS011;7127;49.372;8.166;2023-03-08T11:03:25;4.17;;;3.13;;
14100;SDS011;7127;49.372;8.166;2023-03-08T11:05:54;4.00;;;2.80;;
14100;SDS011;7127;49.372;8.166;2023-03-08T11:08:24;4.13;;;3.20;;
14100;SDS011;7127;49.372;8.166;2023-03-08T11:11:02;3.30;;;2.97;;
14100;SDS011;7127;49.372;8.166;2023-03-08T11:13:31;3.53;;;3.00;;
14100;SDS011;7127;49.372;8.166;2023-03-08T11:16:05;3.70;;;3.30;;
14100;SDS011;7127;49.372;8.166;2023-03-08T11:18:51;4.60;;;3.30;;
14100;SDS011;7127;49.372;8.166;2023-03-08T11:21:25;3.63;;;2.87;;
14100;SDS011;7127;49.372;8.166;2023-03-08T11:24:00;3.33;;;3.03;;
14100;SDS011;7127;49.372;8.166;2023-03-08T11:26:39;4.37;;;3.20;;
14100;SDS011;7127;49.372;8.166;2023-03-08T11:29:16;3.73;;;2.97;;
14100;SDS011;7127;49.372;8.166;2023-03-08T11:31:55;2.93;;;2.50;;
14100;SDS011;7127;49.372;8.166;2023-03-08T11:37:23;2.53;;;2.33;;
14100;SDS011;7127;49.372;8.166;2023-03-08T11:40:00;3.57;;;3.27;;
14100;SDS011;7127;49.372;8.166;2023-03-08T11:42:42;3.23;;;2.93;;
14100;SDS011;7127;49.372;8.166;2023-03-08T11:45:19;2.53;;;2.27;;
14100;SDS011;7127;49.372;8.166;2023-03-08T11:48:00;1.70;;;1.60;;
14100;SDS011;7127;49.372;8.166;2023-03-08T11:50:51;1.47;;;1.37;;
14100;SDS011;7127;49.372;8.166;2023-03-08T11:53:25;1.03;;;0.93;;
14100;SDS011;7127;49.372;8.166;2023-03-08T11:56:04;1.00;;;0.90;;
14100;SDS011;7127;49.372;8.166;2023-03-08T11:58:45;1.00;;;0.90;;
14100;SDS011;7127;49.372;8.166;2023-03-08T12:01:15;1.20;;;1.10;;
14100;SDS011;7127;49.372;8.166;2023-03-08T12:03:45;0.70;;;0.70;;
14100;SDS011;7127;49.372;8.166;2023-03-08T12:06:18;0.93;;;0.87;;
14100;SDS011;7127;49.372;8.166;2023-03-08T12:08:49;0.67;;;0.67;;
14100;SDS011;7127;49.372;8.166;2023-03-08T12:11:24;1.07;;;0.97;;
14100;SDS011;7127;49.372;8.166;2023-03-08T12:13:57;1.40;;;0.93;;
14100;SDS011;7127;49.372;8.166;2023-03-08T12:16:30;1.10;;;1.00;;
14100;SDS011;7127;49.372;8.166;2023-03-08T12:19:04;2.40;;;0.80;;
14100;SDS011;7127;49.372;8.166;2023-03-08T12:21:37;0.80;;;0.80;;
14100;SDS011;7127;49.372;8.166;2023-03-08T12:27:07;0.63;;;0.63;;
14100;SDS011;7127;49.372;8.166;2023-03-08T12:29:40;0.80;;;0.80;;
14100;SDS011;7127;49.372;8.166;2023-03-08T12:32:13;0.60;;;0.60;;
14100;SDS011;7127;49.372;8.166;2023-03-08T12:34:41;0.60;;;0.60;;
14100;SDS011;7127;49.372;8.166;2023-03-08T12:37:20;0.60;;;0.60;;
14100;SDS011;7127;49.372;8.166;2023-03-08T12:39:55;0.93;;;0.80;;
14100;SDS011;7127;49.372;8.166;2023-03-08T12:42:27;0.60;;;0.60;;
14100;SDS011;7127;49.372;8.166;2023-03-08T12:45:05;0.57;;;0.57;;
14100;SDS011;7127;49.372;8.166;2023-03-08T12:47:35;0.60;;;0.53;;
14100;SDS011;7127;49.372;8.166;2023-03-08T12:50:06;0.47;;;0.47;;
14100;SDS011;7127;49.372;8.166;2023-03-08T12:52:35;0.50;;;0.50;;
14100;SDS011;7127;49.372;8.166;2023-03-08T12:55:03;0.60;;;0.60;;
14100;SDS011;7127;49.372;8.166;2023-03-08T12:57:36;0.73;;;0.73;;
14100;SDS011;7127;49.372;8.166;2023-03-08T13:00:22;0.80;;;0.60;;
14100;SDS011;7127;49.372;8.166;2023-03-08T13:02:57;0.40;;;0.40;;
14100;SDS011;7127;49.372;8.166;2023-03-08T13:05:30;0.50;;;0.50;;
14100;SDS011;7127;49.372;8.166;2023-03-08T13:08:00;0.80;;;0.70;;
14100;SDS011;7127;49.372;8.166;2023-03-08T13:10:52;0.40;;;0.40;;
14100;SDS011;7127;49.372;8.166;2023-03-08T13:13:26;0.57;;;0.57;;
14100;SDS011;7127;49.372;8.166;2023-03-08T13:21:46;0.60;;;0.60;;
14100;SDS011;7127;49.372;8.166;2023-03-08T13:24:16;0.70;;;0.63;;
14100;SDS011;7127;49.372;8.166;2023-03-08T13:26:53;0.60;;;0.60;;
14100;SDS011;7127;49.372;8.166;2023-03-08T13:29:28;0.50;;;0.50;;
14100;SDS011;7127;49.372;8.166;2023-03-08T13:31:58;0.60;;;0.60;;
14100;SDS011;7127;49.372;8.166;2023-03-08T13:34:31;0.50;;;0.50;;
14100;SDS011;7127;49.372;8.166;2023-03-08T13:36:59;0.50;;;0.40;;
14100;SDS011;7127;49.372;8.166;2023-03-08T13:39:27;0.40;;;0.40;;
14100;SDS011;7127;49.372;8.166;2023-03-08T13:42:04;1.90;;;0.50;;
14100;SDS011;7127;49.372;8.166;2023-03-08T13:44:32;0.50;;;0.50;;
14100;SDS011;7127;49.372;8.166;2023-03-08T13:47:01;0.43;;;0.40;;
14100;SDS011;7127;49.372;8.166;2023-03-08T13:49:29;0.47;;;0.47;;
14100;SDS011;7127;49.372;8.166;2023-03-08T13:51:58;1.37;;;0.40;;
14100;SDS011;7127;49.372;8.166;2023-03-08T13:54:28;0.63;;;0.40;;
14100;SDS011;7127;49.372;8.166;2023-03-08T13:56:56;0.50;;;0.50;;
14100;SDS011;7127;49.372;8.166;2023-03-08T13:59:25;0.20;;;0.20;;
14100;SDS011;7127;49.372;8.166;2023-03-08T14:01:52;0.10;;;0.10;;
14100;SDS011;7127;49.372;8.166;2023-03-08T14:04:22;0.40;;;0.30;;
14100;SDS011;7127;49.372;8.166;2023-03-08T14:06:51;0.27;;;0.27;;
14100;SDS011;7127;49.372;8.166;2023-03-08T14:09:19;0.40;;;0.30;;
14100;SDS011;7127;49.372;8.166;2023-03-08T14:11:52;0.30;;;0.30;;
14100;SDS011;7127;49.372;8.166;2023-03-08T14:14:25;0.30;;;0.30;;
14100;SDS011;7127;49.372;8.166;2023-03-08T14:16:55;0.43;;;0.30;;
14100;SDS011;7127;49.372;8.166;2023-03-08T14:19:24;0.40;;;0.23;;
14100;SDS011;7127;49.372;8.166;2023-03-08T14:21:54;0.30;;;0.30;;
14100;SDS011;7127;49.372;8.166;2023-03-08T14:24:24;0.50;;;0.50;;
14100;SDS011;7127;49.372;8.166;2023-03-08T14:26:53;0.30;;;0.30;;
14100;SDS011;7127;49.372;8.166;2023-03-08T14:29:22;0.50;;;0.50;;
14100;SDS011;7127;49.372;8.166;2023-03-08T14:31:51;0.63;;;0.43;;
14100;SDS011;7127;49.372;8.166;2023-03-08T14:34:31;0.50;;;0.40;;
14100;SDS011;7127;49.372;8.166;2023-03-08T14:37:01;0.20;;;0.20;;
14100;SDS011;7127;49.372;8.166;2023-03-08T14:39:31;0.30;;;0.30;;
14100;SDS011;7127;49.372;8.166;2023-03-08T14:42:07;0.30;;;0.30;;
14100;SDS011;7127;49.372;8.166;2023-03-08T14:44:47;0.60;;;0.50;;
14100;SDS011;7127;49.372;8.166;2023-03-08T14:47:18;0.20;;;0.20;;
14100;SDS011;7127;49.372;8.166;2023-03-08T14:49:54;1.03;;;0.80;;
14100;SDS011;7127;49.372;8.166;2023-03-08T14:52:25;0.50;;;0.50;;
14100;SDS011;7127;49.372;8.166;2023-03-08T14:54:53;0.50;;;0.50;;
14100;SDS011;7127;49.372;8.166;2023-03-08T14:57:21;0.50;;;0.50;;
14100;SDS011;7127;49.372;8.166;2023-03-08T14:59:49;0.50;;;0.50;;
14100;SDS011;7127;49.372;8.166;2023-03-08T15:02:17;0.97;;;0.50;;
14100;SDS011;7127;49.372;8.166;2023-03-08T15:04:45;0.30;;;0.30;;
14100;SDS011;7127;49.372;8.166;2023-03-08T15:07:15;0.50;;;0.50;;
14100;SDS011;7127;49.372;8.166;2023-03-08T15:09:45;0.43;;;0.43;;
14100;SDS011;7127;49.372;8.166;2023-03-08T15:12:12;0.43;;;0.43;;
14100;SDS011;7127;49.372;8.166;2023-03-08T15:14:39;0.70;;;0.47;;
14100;SDS011;7127;49.372;8.166;2023-03-08T15:17:06;0.50;;;0.50;;
14100;SDS011;7127;49.372;8.166;2023-03-08T15:19:33;0.53;;;0.53;;
14100;SDS011;7127;49.372;8.166;2023-03-08T15:22:00;0.60;;;0.60;;
14100;SDS011;7127;49.372;8.166;2023-03-08T15:24:31;0.83;;;0.50;;